sensor_id;sensor_type;location;lat;lon;timestamp;pressure;altitude;pressure_sealevel;temperature;humidity
35551;BME280;21655;46.056;13.616;2023-03-14T00:01:00;99946.41;;;10.77;100.00
35551;BME280;21655;46.056;13.616;2023-03-14T00:03:32;99937.53;;;10.81;100.00
35551;BME280;21655;46.056;13.616;2023-03-14T00:06:02;99941.75;;;10.77;100.00
35551;BME280;21655;46.056;13.616;2023-03-14T00:08:28;99938.97;;;10.77;100.00
35551;BME280;21655;46.056;13.616;2023-03-14T00:10:53;99929.78;;;10.77;100.00
35551;BME280;21655;46.056;13.616;2023-03-14T00:13:19;99924.81;;;10.87;100.00
35551;BME280;21655;46.056;13.616;2023-03-14T00:15:44;99916.88;;;10.69;100.00
35551;BME280;21655;46.056;13.616;2023-03-14T00:18:10;99909.63;;;10.68;100.00
35551;BME280;21655;46.056;13.616;2023-03-14T00:20:35;99909.53;;;10.62;100.00
35551;BME280;21655;46.056;13.616;2023-03-14T00:23:01;99906.00;;;10.68;100.00
35551;BME280;21655;46.056;13.616;2023-03-14T00:25:27;99888.88;;;10.64;100.00
35551;BME280;21655;46.056;13.616;2023-03-14T00:27:53;99887.94;;;10.57;100.00
35551;BME280;21655;46.056;13.616;2023-03-14T00:30:19;99886.78;;;10.52;100.00
35551;BME280;21655;46.056;13.616;2023-03-14T00:32:44;99879.13;;;10.54;100.00
35551;BME280;21655;46.056;13.616;2023-03-14T00:35:10;99880.69;;;10.56;100.00
35551;BME280;21655;46.056;13.616;2023-03-14T00:37:35;99874.44;;;10.54;100.00
35551;BME280;21655;46.056;13.616;2023-03-14T00:40:01;99863.56;;;10.53;100.00
35551;BME280;21655;46.056;13.616;2023-03-14T00:42:26;99849.59;;;10.61;100.00
35551;BME280;21655;46.056;13.616;2023-03-14T00:44:52;99844.72;;;10.63;100.00
35551;BME280;21655;46.056;13.616;2023-03-14T00:47:18;99832.78;;;10.62;100.00
35551;BME280;21655;46.056;13.616;2023-03-14T00:49:43;99841.66;;;10.72;100.00
35551;BME280;21655;46.056;13.616;2023-03-14T00:52:09;99834.75;;;10.68;100.00
35551;BME280;21655;46.056;13.616;2023-03-14T00:54:35;99828.38;;;10.53;100.00
35551;BME280;21655;46.056;13.616;2023-03-14T00:57:00;99821.88;;;10.46;100.00
35551;BME280;21655;46.056;13.616;2023-03-14T00:59:26;99816.44;;;10.53;100.00
35551;BME280;21655;46.056;13.616;2023-03-14T01:01:51;99829.34;;;10.46;100.00
35551;BME280;21655;46.056;13.616;2023-03-14T01:04:17;99826.00;;;10.50;100.00
35551;BME280;21655;46.056;13.616;2023-03-14T01:06:42;99832.41;;;10.51;100.00
35551;BME280;21655;46.056;13.616;2023-03-14T01:09:07;99818.63;;;10.43;100.00
35551;BME280;21655;46.056;13.616;2023-03-14T01:11:34;99830.13;;;10.40;100.00
35551;BME280;21655;46.056;13.616;2023-03-14T01:14:00;99805.84;;;10.42;100.00
35551;BME280;21655;46.056;13.616;2023-03-14T01:16:27;99798.97;;;10.38;100.00
35551;BME280;21655;46.056;13.616;2023-03-14T01:18:53;99796.09;;;10.31;100.00
35551;BME280;21655;46.056;13.616;2023-03-14T01:21:21;99782.81;;;10.27;100.00
35551;BME280;21655;46.056;13.616;2023-03-14T01:23:48;99763.63;;;10.25;100.00
35551;BME280;21655;46.056;13.616;2023-03-14T01:26:17;99760.56;;;10.20;100.00
35551;BME280;21655;46.056;13.616;2023-03-14T01:28:44;99761.31;;;10.29;100.00
35551;BME280;21655;46.056;13.616;2023-03-14T01:31:10;99766.78;;;10.37;100.00
35551;BME280;21655;46.056;13.616;2023-03-14T01:33:36;99763.59;;;10.40;100.00
35551;BME280;21655;46.056;13.616;2023-03-14T01:36:02;99763.53;;;10.19;100.00
35551;BME280;21655;46.056;13.616;2023-03-14T01:38:31;99761.72;;;10.26;100.00
35551;BME280;21655;46.056;13.616;2023-03-14T01:40:57;99752.94;;;10.22;100.00
35551;BME280;21655;46.056;13.616;2023-03-14T01:43:24;99745.00;;;10.19;100.00
35551;BME280;21655;46.056;13.616;2023-03-14T01:48:44;99726.34;;;10.28;100.00
35551;BME280;21655;46.056;13.616;2023-03-14T01:51:19;99715.34;;;10.34;100.00
35551;BME280;21655;46.056;13.616;2023-03-14T01:53:48;99717.72;;;10.37;100.00
35551;BME280;21655;46.056;13.616;2023-03-14T01:56:15;99714.97;;;10.37;100.00
35551;BME280;21655;46.056;13.616;2023-03-14T01:58:45;99699.38;;;10.36;100.00
35551;BME280;21655;46.056;13.616;2023-03-14T02:01:15;99695.50;;;10.31;100.00
35551;BME280;21655;46.056;13.616;2023-03-14T02:03:52;99684.13;;;10.40;100.00
35551;BME280;21655;46.056;13.616;2023-03-14T02:06:23;99677.03;;;10.38;100.00
35551;BME280;21655;46.056;13.616;2023-03-14T02:08:50;99683.47;;;10.38;100.00
35551;BME280;21655;46.056;13.616;2023-03-14T02:11:17;99671.22;;;10.33;100.00
35551;BME280;21655;46.056;13.616;2023-03-14T02:13:43;99671.41;;;10.31;100.00
35551;BME280;21655;46.056;13.616;2023-03-14T02:16:09;99667.31;;;10.27;100.00
35551;BME280;21655;46.056;13.616;2023-03-14T02:18:35;99661.53;;;10.22;100.00
35551;BME280;21655;46.056;13.616;2023-03-14T02:21:09;99659.34;;;10.18;100.00
35551;BME280;21655;46.056;13.616;2023-03-14T02:26:41;99629.34;;;10.21;100.00
35551;BME280;21655;46.056;13.616;2023-03-14T02:29:08;99626.59;;;10.28;100.00
35551;BME280;21655;46.056;13.616;2023-03-14T02:31:34;99621.28;;;10.26;100.00
35551;BME280;21655;46.056;13.616;2023-03-14T02:34:00;99610.94;;;10.35;100.00
35551;BME280;21655;46.056;13.616;2023-03-14T02:36:27;99597.91;;;10.35;100.00
35551;BME280;21655;46.056;13.616;2023-03-14T02:39:16;99586.56;;;10.30;100.00
35551;BME280;21655;46.056;13.616;2023-03-14T02:41:44;99591.28;;;10.30;100.00
35551;BME280;21655;46.056;13.616;2023-03-14T02:44:11;99600.44;;;10.30;100.00
35551;BME280;21655;46.056;13.616;2023-03-14T02:46:37;99581.44;;;10.27;100.00
35551;BME280;21655;46.056;13.616;2023-03-14T02:49:05;99581.19;;;10.22;100.00
35551;BME280;21655;46.056;13.616;2023-03-14T02:51:33;99570.69;;;10.18;100.00
35551;BME280;21655;46.056;13.616;2023-03-14T02:53:58;99565.81;;;10.20;100.00
35551;BME280;21655;46.056;13.616;2023-03-14T02:56:24;99571.00;;;10.29;100.00
35551;BME280;21655;46.056;13.616;2023-03-14T02:58:50;99574.84;;;10.28;100.00
35551;BME280;21655;46.056;13.616;2023-03-14T03:01:15;99584.53;;;10.39;100.00
35551;BME280;21655;46.056;13.616;2023-03-14T03:03:40;99588.53;;;10.36;100.00
35551;BME280;21655;46.056;13.616;2023-03-14T03:06:06;99585.03;;;10.07;100.00
35551;BME280;21655;46.056;13.616;2023-03-14T03:08:32;99586.97;;;9.92;100.00
35551;BME280;21655;46.056;13.616;2023-03-14T03:10:58;99579.31;;;9.94;100.00
35551;BME280;21655;46.056;13.616;2023-03-14T03:13:24;99575.69;;;10.08;100.00
35551;BME280;21655;46.056;13.616;2023-03-14T03:15:50;99582.53;;;10.12;100.00
35551;BME280;21655;46.056;13.616;2023-03-14T03:18:16;99574.69;;;10.15;100.00
35551;BME280;21655;46.056;13.616;2023-03-14T03:20:41;99583.22;;;10.14;100.00
35551;BME280;21655;46.056;13.616;2023-03-14T03:23:07;99589.53;;;10.08;100.00
35551;BME280;21655;46.056;13.616;2023-03-14T03:25:32;99587.88;;;10.13;100.00
35551;BME280;21655;46.056;13.616;2023-03-14T03:27:58;99587.50;;;10.16;100.00
35551;BME280;21655;46.056;13.616;2023-03-14T03:30:24;99589.19;;;10.17;100.00
35551;BME280;21655;46.056;13.616;2023-03-14T03:32:49;99589.75;;;10.27;100.00
35551;BME280;21655;46.056;13.616;2023-03-14T03:35:15;99582.91;;;10.23;100.00
35551;BME280;21655;46.056;13.616;2023-03-14T03:37:40;99588.22;;;10.25;100.00
35551;BME280;21655;46.056;13.616;2023-03-14T03:40:08;99584.94;;;10.36;100.00
35551;BME280;21655;46.056;13.616;2023-03-14T03:42:34;99585.94;;;10.28;100.00
35551;BME280;21655;46.056;13.616;2023-03-14T03:45:00;99581.22;;;10.29;100.00
35551;BME280;21655;46.056;13.616;2023-03-14T03:47:26;99573.53;;;10.24;100.00
35551;BME280;21655;46.056;13.616;2023-03-14T03:49:52;99560.81;;;10.30;100.00
35551;BME280;21655;46.056;13.616;2023-03-14T03:52:17;99570.09;;;10.22;100.00
35551;BME280;21655;46.056;13.616;2023-03-14T03:54:43;99561.78;;;10.22;100.00
35551;BME280;21655;46.056;13.616;2023-03-14T03:57:09;99558.03;;;10.30;100.00
35551;BME280;21655;46.056;13.616;2023-03-14T03:59:34;99549.09;;;10.34;100.00
35551;BME280;21655;46.056;13.616;2023-03-14T04:02:00;99556.56;;;10.34;100.00
35551;BME280;21655;46.056;13.616;2023-03-14T04:04:25;99559.78;;;10.16;100.00
35551;BME280;21655;46.056;13.616;2023-03-14T04:06:51;99555.13;;;10.17;100.00
35551;BME280;21655;46.056;13.616;2023-03-14T04:09:16;99554.66;;;10.13;100.00
35551;BME280;21655;46.056;13.616;2023-03-14T04:11:42;99547.00;;;10.15;100.00
35551;BME280;21655;46.056;13.616;2023-03-14T04:14:08;99534.47;;;10.19;100.00
35551;BME280;21655;46.056;13.616;2023-03-14T04:16:33;99544.56;;;10.27;100.00
35551;BME280;21655;46.056;13.616;2023-03-14T04:18:59;99531.97;;;10.24;100.00
35551;BME280;21655;46.056;13.616;2023-03-14T04:21:25;99535.16;;;10.21;100.00
35551;BME280;21655;46.056;13.616;2023-03-14T04:23:50;99533.09;;;10.30;100.00
35551;BME280;21655;46.056;13.616;2023-03-14T04:26:16;99533.28;;;10.28;100.00
35551;BME280;21655;46.056;13.616;2023-03-14T04:28:41;99514.28;;;10.25;100.00
35551;BME280;21655;46.056;13.616;2023-03-14T04:31:09;99515.44;;;10.37;100.00
35551;BME280;21655;46.056;13.616;2023-03-14T04:33:35;99513.31;;;10.33;100.00
35551;BME280;21655;46.056;13.616;2023-03-14T04:36:03;99506.69;;;10.34;100.00
35551;BME280;21655;46.056;13.616;2023-03-14T04:38:28;99515.19;;;10.32;100.00
35551;BME280;21655;46.056;13.616;2023-03-14T04:40:54;99520.09;;;10.30;100.00
35551;BME280;21655;46.056;13.616;2023-03-14T04:43:19;99509.53;;;10.19;100.00
35551;BME280;21655;46.056;13.616;2023-03-14T04:45:45;99504.59;;;10.15;100.00
35551;BME280;21655;46.056;13.616;2023-03-14T04:48:11;99533.41;;;10.20;100.00
35551;BME280;21655;46.056;13.616;2023-03-14T04:50:37;99543.97;;;10.31;100.00
35551;BME280;21655;46.056;13.616;2023-03-14T04:53:03;99515.75;;;10.21;100.00
35551;BME280;21655;46.056;13.616;2023-03-14T04:55:28;99503.63;;;10.22;100.00
35551;BME280;21655;46.056;13.616;2023-03-14T04:57:54;99499.31;;;10.20;100.00
35551;BME280;21655;46.056;13.616;2023-03-14T05:00:19;99492.56;;;10.29;100.00
35551;BME280;21655;46.056;13.616;2023-03-14T05:02:45;99489.34;;;10.25;100.00
35551;BME280;21655;46.056;13.616;2023-03-14T05:05:10;99468.03;;;10.26;100.00
35551;BME280;21655;46.056;13.616;2023-03-14T05:07:36;99459.13;;;10.30;100.00
35551;BME280;21655;46.056;13.616;2023-03-14T05:10:02;99448.66;;;10.26;100.00
35551;BME280;21655;46.056;13.616;2023-03-14T05:12:27;99425.88;;;10.30;100.00
35551;BME280;21655;46.056;13.616;2023-03-14T05:14:53;99424.22;;;10.36;100.00
35551;BME280;21655;46.056;13.616;2023-03-14T05:17:18;99433.38;;;10.36;100.00
35551;BME280;21655;46.056;13.616;2023-03-14T05:19:44;99424.63;;;10.33;100.00
35551;BME280;21655;46.056;13.616;2023-03-14T05:22:10;99432.25;;;10.24;100.00
35551;BME280;21655;46.056;13.616;2023-03-14T05:24:36;99449.75;;;10.31;100.00
35551;BME280;21655;46.056;13.616;2023-03-14T05:27:02;99455.13;;;10.33;100.00
35551;BME280;21655;46.056;13.616;2023-03-14T05:29:28;99467.84;;;10.27;100.00
35551;BME280;21655;46.056;13.616;2023-03-14T05:31:53;99464.44;;;10.25;100.00
35551;BME280;21655;46.056;13.616;2023-03-14T05:34:19;99461.38;;;10.20;100.00
35551;BME280;21655;46.056;13.616;2023-03-14T05:36:44;99453.06;;;10.20;100.00
35551;BME280;21655;46.056;13.616;2023-03-14T05:39:10;99450.09;;;10.22;100.00
35551;BME280;21655;46.056;13.616;2023-03-14T05:41:35;99443.38;;;10.31;100.00
35551;BME280;21655;46.056;13.616;2023-03-14T05:44:01;99431.25;;;10.32;100.00
35551;BME280;21655;46.056;13.616;2023-03-14T05:46:26;99417.56;;;10.30;100.00
35551;BME280;21655;46.056;13.616;2023-03-14T05:48:51;99413.78;;;10.38;100.00
35551;BME280;21655;46.056;13.616;2023-03-14T05:51:17;99409.44;;;10.29;100.00
35551;BME280;21655;46.056;13.616;2023-03-14T05:53:42;99414.56;;;10.25;100.00
35551;BME280;21655;46.056;13.616;2023-03-14T05:56:08;99403.47;;;10.25;100.00
35551;BME280;21655;46.056;13.616;2023-03-14T05:58:34;99395.81;;;10.27;100.00
35551;BME280;21655;46.056;13.616;2023-03-14T06:01:03;99369.31;;;10.18;100.00
35551;BME280;21655;46.056;13.616;2023-03-14T06:03:29;99362.53;;;10.21;100.00
35551;BME280;21655;46.056;13.616;2023-03-14T06:05:55;99361.69;;;10.27;100.00
35551;BME280;21655;46.056;13.616;2023-03-14T06:08:20;99386.03;;;10.31;100.00
35551;BME280;21655;46.056;13.616;2023-03-14T06:10:45;99398.38;;;10.29;100.00
35551;BME280;21655;46.056;13.616;2023-03-14T06:13:11;99420.03;;;10.19;100.00
35551;BME280;21655;46.056;13.616;2023-03-14T06:15:36;99403.84;;;10.16;100.00
35551;BME280;21655;46.056;13.616;2023-03-14T06:18:02;99408.03;;;10.12;100.00
35551;BME280;21655;46.056;13.616;2023-03-14T06:20:28;99385.75;;;10.20;100.00
35551;BME280;21655;46.056;13.616;2023-03-14T06:22:53;99380.84;;;10.22;100.00
35551;BME280;21655;46.056;13.616;2023-03-14T06:25:19;99382.63;;;10.29;100.00
35551;BME280;21655;46.056;13.616;2023-03-14T06:27:44;99382.03;;;10.34;100.00
35551;BME280;21655;46.056;13.616;2023-03-14T06:30:11;99373.66;;;10.27;100.00
35551;BME280;21655;46.056;13.616;2023-03-14T06:32:36;99365.41;;;10.34;100.00
35551;BME280;21655;46.056;13.616;2023-03-14T06:35:02;99351.16;;;10.43;100.00
35551;BME280;21655;46.056;13.616;2023-03-14T06:37:28;99354.13;;;10.42;100.00
35551;BME280;21655;46.056;13.616;2023-03-14T06:39:55;99371.69;;;10.49;100.00
35551;BME280;21655;46.056;13.616;2023-03-14T06:42:20;99377.88;;;10.51;100.00
35551;BME280;21655;46.056;13.616;2023-03-14T06:44:46;99367.38;;;10.46;100.00
35551;BME280;21655;46.056;13.616;2023-03-14T06:47:11;99365.22;;;10.42;100.00
35551;BME280;21655;46.056;13.616;2023-03-14T06:49:37;99359.66;;;10.42;100.00
35551;BME280;21655;46.056;13.616;2023-03-14T06:52:02;99353.25;;;10.35;100.00
35551;BME280;21655;46.056;13.616;2023-03-14T06:54:28;99355.25;;;10.47;100.00
35551;BME280;21655;46.056;13.616;2023-03-14T06:56:54;99347.16;;;10.52;100.00
35551;BME280;21655;46.056;13.616;2023-03-14T06:59:19;99346.50;;;10.50;100.00
35551;BME280;21655;46.056;13.616;2023-03-14T07:01:45;99347.38;;;10.51;100.00
35551;BME280;21655;46.056;13.616;2023-03-14T07:04:10;99356.78;;;10.56;100.00
35551;BME280;21655;46.056;13.616;2023-03-14T07:06:36;99353.97;;;10.50;100.00
35551;BME280;21655;46.056;13.616;2023-03-14T07:09:02;99355.03;;;10.49;100.00
35551;BME280;21655;46.056;13.616;2023-03-14T07:11:27;99340.91;;;10.44;100.00
35551;BME280;21655;46.056;13.616;2023-03-14T07:13:53;99343.50;;;10.45;100.00
35551;BME280;21655;46.056;13.616;2023-03-14T07:16:19;99346.50;;;10.50;100.00
35551;BME280;21655;46.056;13.616;2023-03-14T07:18:45;99347.16;;;10.52;100.00
35551;BME280;21655;46.056;13.616;2023-03-14T07:21:11;99333.97;;;10.61;100.00
35551;BME280;21655;46.056;13.616;2023-03-14T07:23:37;99322.69;;;10.62;100.00
35551;BME280;21655;46.056;13.616;2023-03-14T07:26:04;99329.31;;;10.61;100.00
35551;BME280;21655;46.056;13.616;2023-03-14T07:28:29;99314.38;;;10.62;100.00
35551;BME280;21655;46.056;13.616;2023-03-14T07:30:55;99311.88;;;10.74;100.00
35551;BME280;21655;46.056;13.616;2023-03-14T07:33:20;99310.53;;;10.63;100.00
35551;BME280;21655;46.056;13.616;2023-03-14T07:35:47;99312.75;;;10.74;100.00
35551;BME280;21655;46.056;13.616;2023-03-14T07:38:13;99309.94;;;10.68;100.00
35551;BME280;21655;46.056;13.616;2023-03-14T07:40:39;99297.56;;;10.64;100.00
35551;BME280;21655;46.056;13.616;2023-03-14T07:43:05;99297.16;;;10.73;100.00
35551;BME280;21655;46.056;13.616;2023-03-14T07:45:30;99296.72;;;10.70;100.00
35551;BME280;21655;46.056;13.616;2023-03-14T07:47:55;99280.69;;;10.65;100.00
35551;BME280;21655;46.056;13.616;2023-03-14T07:50:23;99281.16;;;10.69;100.00
35551;BME280;21655;46.056;13.616;2023-03-14T07:52:49;99257.03;;;10.69;100.00
35551;BME280;21655;46.056;13.616;2023-03-14T07:55:15;99254.50;;;10.68;100.00
35551;BME280;21655;46.056;13.616;2023-03-14T07:57:40;99255.13;;;10.70;100.00
35551;BME280;21655;46.056;13.616;2023-03-14T08:00:07;99261.16;;;10.80;100.00
35551;BME280;21655;46.056;13.616;2023-03-14T08:02:32;99260.25;;;10.73;100.00
35551;BME280;21655;46.056;13.616;2023-03-14T08:04:58;99271.94;;;10.62;100.00
35551;BME280;21655;46.056;13.616;2023-03-14T08:07:23;99277.75;;;10.67;100.00
35551;BME280;21655;46.056;13.616;2023-03-14T08:09:49;99298.66;;;10.76;100.00
35551;BME280;21655;46.056;13.616;2023-03-14T08:12:14;99314.41;;;10.69;100.00
35551;BME280;21655;46.056;13.616;2023-03-14T08:14:41;99319.75;;;10.64;100.00
35551;BME280;21655;46.056;13.616;2023-03-14T08:17:07;99322.94;;;10.67;100.00
35551;BME280;21655;46.056;13.616;2023-03-14T08:19:33;99325.50;;;10.69;100.00
35551;BME280;21655;46.056;13.616;2023-03-14T08:21:59;99319.34;;;10.73;100.00
35551;BME280;21655;46.056;13.616;2023-03-14T08:24:24;99332.38;;;10.79;100.00
35551;BME280;21655;46.056;13.616;2023-03-14T08:26:50;99331.69;;;10.71;100.00
35551;BME280;21655;46.056;13.616;2023-03-14T08:29:15;99327.22;;;10.70;100.00
35551;BME280;21655;46.056;13.616;2023-03-14T08:31:41;99319.53;;;10.72;100.00
35551;BME280;21655;46.056;13.616;2023-03-14T08:34:07;99318.94;;;10.76;100.00
35551;BME280;21655;46.056;13.616;2023-03-14T08:36:32;99320.84;;;10.76;100.00
35551;BME280;21655;46.056;13.616;2023-03-14T08:38:58;99315.25;;;10.69;100.00
35551;BME280;21655;46.056;13.616;2023-03-14T08:41:24;99298.25;;;10.72;100.00
35551;BME280;21655;46.056;13.616;2023-03-14T08:43:49;99309.31;;;10.72;100.00
35551;BME280;21655;46.056;13.616;2023-03-14T08:46:15;99308.94;;;10.82;100.00
35551;BME280;21655;46.056;13.616;2023-03-14T08:48:40;99303.56;;;10.74;100.00
35551;BME280;21655;46.056;13.616;2023-03-14T08:51:09;99298.84;;;10.68;100.00
35551;BME280;21655;46.056;13.616;2023-03-14T08:53:39;99301.66;;;10.74;100.00
35551;BME280;21655;46.056;13.616;2023-03-14T08:56:06;99298.25;;;10.72;100.00
35551;BME280;21655;46.056;13.616;2023-03-14T08:58:32;99293.53;;;10.73;100.00
35551;BME280;21655;46.056;13.616;2023-03-14T09:00:57;99293.97;;;10.76;100.00
35551;BME280;21655;46.056;13.616;2023-03-14T09:03:24;99300.84;;;10.87;100.00
35551;BME280;21655;46.056;13.616;2023-03-14T09:05:50;99298.06;;;10.87;100.00
35551;BME280;21655;46.056;13.616;2023-03-14T09:08:16;99271.16;;;10.87;100.00
35551;BME280;21655;46.056;13.616;2023-03-14T09:10:41;99276.06;;;10.85;100.00
35551;BME280;21655;46.056;13.616;2023-03-14T09:13:07;99289.94;;;10.85;100.00
35551;BME280;21655;46.056;13.616;2023-03-14T09:15:32;99286.97;;;10.87;100.00
35551;BME280;21655;46.056;13.616;2023-03-14T09:17:58;99289.94;;;10.85;100.00
35551;BME280;21655;46.056;13.616;2023-03-14T09:20:24;99277.41;;;10.96;100.00
35551;BME280;21655;46.056;13.616;2023-03-14T09:22:49;99280.63;;;11.06;100.00
35551;BME280;21655;46.056;13.616;2023-03-14T09:25:15;99277.88;;;11.12;100.00
35551;BME280;21655;46.056;13.616;2023-03-14T09:27:40;99265.94;;;11.24;100.00
35551;BME280;21655;46.056;13.616;2023-03-14T09:30:06;99256.97;;;11.29;100.00
35551;BME280;21655;46.056;13.616;2023-03-14T09:32:32;99258.25;;;11.33;100.00
35551;BME280;21655;46.056;13.616;2023-03-14T09:34:57;99258.03;;;11.28;100.00
35551;BME280;21655;46.056;13.616;2023-03-14T09:37:23;99267.25;;;11.28;100.00
35551;BME280;21655;46.056;13.616;2023-03-14T09:39:48;99274.25;;;11.18;100.00
35551;BME280;21655;46.056;13.616;2023-03-14T09:42:19;99274.25;;;11.18;100.00
35551;BME280;21655;46.056;13.616;2023-03-14T09:44:58;99263.13;;;11.05;100.00
35551;BME280;21655;46.056;13.616;2023-03-14T09:47:25;99272.09;;;11.07;100.00
35551;BME280;21655;46.056;13.616;2023-03-14T09:49:51;99268.88;;;11.04;100.00
35551;BME280;21655;46.056;13.616;2023-03-14T09:52:28;99264.41;;;11.09;100.00
35551;BME280;21655;46.056;13.616;2023-03-14T09:57:28;99270.78;;;11.03;100.00
35551;BME280;21655;46.056;13.616;2023-03-14T10:00:02;99266.09;;;11.04;100.00
35551;BME280;21655;46.056;13.616;2023-03-14T10:02:37;99256.94;;;11.10;100.00
35551;BME280;21655;46.056;13.616;2023-03-14T10:05:13;99255.91;;;11.23;100.00
35551;BME280;21655;46.056;13.616;2023-03-14T10:07:38;99249.09;;;11.26;100.00
35551;BME280;21655;46.056;13.616;2023-03-14T10:10:25;99262.50;;;11.22;100.00
35551;BME280;21655;46.056;13.616;2023-03-14T10:12:59;99264.00;;;11.12;100.00
35551;BME280;21655;46.056;13.616;2023-03-14T10:15:33;99255.66;;;11.06;100.00
35551;BME280;21655;46.056;13.616;2023-03-14T10:18:00;99237.31;;;11.05;100.00
35551;BME280;21655;46.056;13.616;2023-03-14T10:20:34;99236.91;;;11.20;100.00
35551;BME280;21655;46.056;13.616;2023-03-14T10:23:04;99235.41;;;11.24;100.00
35551;BME280;21655;46.056;13.616;2023-03-14T10:25:32;99228.13;;;11.17;100.00
35551;BME280;21655;46.056;13.616;2023-03-14T10:27:58;99230.09;;;11.23;100.00
35551;BME280;21655;46.056;13.616;2023-03-14T10:30:40;99224.31;;;11.24;100.00
35551;BME280;21655;46.056;13.616;2023-03-14T10:35:45;99214.50;;;11.22;100.00
35551;BME280;21655;46.056;13.616;2023-03-14T10:38:16;99226.88;;;11.26;100.00
35551;BME280;21655;46.056;13.616;2023-03-14T10:40:52;99221.78;;;11.29;100.00
35551;BME280;21655;46.056;13.616;2023-03-14T10:43:22;99211.06;;;11.39;100.00
35551;BME280;21655;46.056;13.616;2023-03-14T10:45:57;99221.09;;;11.34;100.00
35551;BME280;21655;46.056;13.616;2023-03-14T10:48:30;99221.78;;;11.29;100.00
35551;BME280;21655;46.056;13.616;2023-03-14T10:53:22;99207.25;;;11.47;100.00
35551;BME280;21655;46.056;13.616;2023-03-14T10:55:47;99198.47;;;11.50;100.00
35551;BME280;21655;46.056;13.616;2023-03-14T11:00:51;99201.28;;;11.56;100.00
35551;BME280;21655;46.056;13.616;2023-03-14T11:03:19;99211.09;;;11.52;100.00
35551;BME280;21655;46.056;13.616;2023-03-14T11:11:03;99220.72;;;11.37;100.00
35551;BME280;21655;46.056;13.616;2023-03-14T11:13:41;99208.53;;;11.31;100.00
35551;BME280;21655;46.056;13.616;2023-03-14T11:19:03;99195.72;;;11.37;100.00
35551;BME280;21655;46.056;13.616;2023-03-14T11:22:10;99191.84;;;11.51;100.00
35551;BME280;21655;46.056;13.616;2023-03-14T11:25:06;99186.75;;;11.48;100.00
35551;BME280;21655;46.056;13.616;2023-03-14T11:30:18;99191.03;;;11.57;100.00
35551;BME280;21655;46.056;13.616;2023-03-14T11:32:56;99176.53;;;11.61;100.00
35551;BME280;21655;46.056;13.616;2023-03-14T11:35:30;99176.53;;;11.61;100.00
35551;BME280;21655;46.056;13.616;2023-03-14T11:40:53;99163.66;;;11.73;100.00
35551;BME280;21655;46.056;13.616;2023-03-14T11:43:59;99164.13;;;11.64;100.00
35551;BME280;21655;46.056;13.616;2023-03-14T11:46:25;99143.38;;;11.73;100.00
35551;BME280;21655;46.056;13.616;2023-03-14T11:51:29;99139.94;;;11.77;100.00
35551;BME280;21655;46.056;13.616;2023-03-14T11:56:59;99117.97;;;11.50;100.00
35551;BME280;21655;46.056;13.616;2023-03-14T12:02:01;99102.41;;;11.49;100.00
35551;BME280;21655;46.056;13.616;2023-03-14T12:07:21;99091.94;;;11.51;100.00
35551;BME280;21655;46.056;13.616;2023-03-14T12:09:49;99076.16;;;11.58;100.00
35551;BME280;21655;46.056;13.616;2023-03-14T12:12:21;99077.63;;;11.60;100.00
35551;BME280;21655;46.056;13.616;2023-03-14T12:14:59;99081.91;;;11.56;100.00
35551;BME280;21655;46.056;13.616;2023-03-14T12:17:35;99074.88;;;11.41;100.00
35551;BME280;21655;46.056;13.616;2023-03-14T12:20:20;99076.34;;;11.50;100.00
35551;BME280;21655;46.056;13.616;2023-03-14T12:22:55;99066.53;;;11.54;100.00
35551;BME280;21655;46.056;13.616;2023-03-14T12:25:24;99061.41;;;11.57;100.00
35551;BME280;21655;46.056;13.616;2023-03-14T12:35:50;99037.28;;;11.64;100.00
35551;BME280;21655;46.056;13.616;2023-03-14T12:38:25;99046.03;;;11.61;100.00
35551;BME280;21655;46.056;13.616;2023-03-14T12:43:34;99033.22;;;11.54;100.00
35551;BME280;21655;46.056;13.616;2023-03-14T12:49:08;99037.03;;;11.53;100.00
35551;BME280;21655;46.056;13.616;2023-03-14T12:51:39;99051.59;;;11.48;100.00
35551;BME280;21655;46.056;13.616;2023-03-14T12:59:54;99021.25;;;11.53;100.00
35551;BME280;21655;46.056;13.616;2023-03-14T13:02:27;99013.38;;;11.44;100.00
35551;BME280;21655;46.056;13.616;2023-03-14T13:05:04;99017.66;;;11.46;100.00
35551;BME280;21655;46.056;13.616;2023-03-14T13:17:43;99032.81;;;11.57;100.00
35551;BME280;21655;46.056;13.616;2023-03-14T13:20:24;99043.03;;;11.56;100.00
35551;BME280;21655;46.056;13.616;2023-03-14T13:22:51;99052.84;;;11.52;100.00
35551;BME280;21655;46.056;13.616;2023-03-14T13:25:17;99046.69;;;11.44;100.00
35551;BME280;21655;46.056;13.616;2023-03-14T13:27:43;99039.88;;;11.46;100.00
35551;BME280;21655;46.056;13.616;2023-03-14T13:30:38;99040.06;;;11.58;100.00
35551;BME280;21655;46.056;13.616;2023-03-14T13:33:04;99048.81;;;11.48;100.00
35551;BME280;21655;46.056;13.616;2023-03-14T13:35:42;99053.31;;;11.43;100.00
35551;BME280;21655;46.056;13.616;2023-03-14T13:38:35;99054.56;;;11.47;100.00
35551;BME280;21655;46.056;13.616;2023-03-14T13:41:05;99057.59;;;11.45;100.00
35551;BME280;21655;46.056;13.616;2023-03-14T13:43:33;99046.25;;;11.47;100.00
35551;BME280;21655;46.056;13.616;2023-03-14T13:48:31;99044.75;;;11.57;100.00
35551;BME280;21655;46.056;13.616;2023-03-14T13:51:05;99037.06;;;11.59;100.00
35551;BME280;21655;46.056;13.616;2023-03-14T13:53:41;99032.34;;;11.53;100.00
35551;BME280;21655;46.056;13.616;2023-03-14T13:56:09;99031.94;;;11.50;100.00